createdAt,value
2018-07-23T10:23:36.312Z,101399.52
2018-07-23T10:28:26.071Z,101397.88
2018-07-23T10:33:20.201Z,101393.78
2018-07-23T10:38:14.742Z,101394.72
2018-07-23T10:43:10.117Z,101387.72
2018-07-23T10:48:04.301Z,101392.87
2018-07-23T10:52:58.804Z,101390.22
2018-07-23T10:57:53.742Z,101379.95
2018-07-23T11:02:49.107Z,101386.64
2018-07-23T11:07:44.095Z,101388.10
2018-07-23T11:12:41.194Z,101385.58
2018-07-23T11:17:38.564Z,101386.48
2018-07-23T11:22:43.484Z,101384.36
2018-07-23T11:27:45.447Z,101383.16
2018-07-23T11:33:25.864Z,101379.61
2018-07-23T11:38:17.084Z,101380.07
2018-07-23T11:43:17.495Z,101382.74
2018-07-23T11:48:38.736Z,101380.74
2018-07-23T11:53:35.398Z,101374.27
2018-07-23T11:58:33.239Z,101374.78
2018-07-23T12:03:32.851Z,101364.83
2018-07-23T12:08:31.936Z,101360.59
2018-07-23T12:13:33.504Z,101351.45
2018-07-23T12:18:51.254Z,101358.66
2018-07-23T12:23:49.934Z,101356.36
2018-07-23T12:28:48.297Z,101350.43
2018-07-23T12:34:02.248Z,101350.77
2018-07-23T12:39:00.585Z,101351.65
2018-07-23T12:52:12.646Z,101353.20
2018-07-23T12:57:09.392Z,101341.72
2018-07-23T13:02:13.711Z,101341.67
2018-07-23T13:07:17.005Z,101337.02
2018-07-23T13:12:14.928Z,101338.17
2018-07-23T13:17:31.291Z,101335.00
2018-07-23T13:22:37.812Z,101327.61
2018-07-23T13:35:40.679Z,101323.92
2018-07-23T13:40:43.356Z,101323.12
2018-07-23T13:45:44.885Z,101310.09
2018-07-23T13:50:48.178Z,101310.55
2018-07-23T13:55:42.833Z,101320.77
2018-07-23T14:00:47.422Z,101316.77
2018-07-23T14:05:58.107Z,101304.82
2018-07-23T14:10:54.949Z,101307.05
2018-07-23T14:21:10.141Z,101288.22
2018-07-23T14:31:20.825Z,101289.96
2018-07-23T14:42:23.584Z,101286.02
2018-07-23T14:47:36.659Z,101274.15
2018-07-23T14:58:11.170Z,101266.07
2018-07-23T15:23:04.325Z,101261.75
2018-07-23T15:28:26.152Z,101254.64
2018-07-23T15:33:28.787Z,101261.92
2018-07-23T15:38:34.769Z,101257.75
2018-07-23T15:44:00.561Z,101261.05
2018-07-23T16:13:53.676Z,101240.67
2018-07-23T16:18:49.843Z,101237.63
2018-07-23T16:24:02.319Z,101233.66
2018-07-23T16:46:13.416Z,101235.63
2018-07-23T16:56:46.342Z,101231.06
2018-07-23T17:01:44.097Z,101226.78
2018-07-23T17:14:41.308Z,101221.17
2018-07-23T17:19:36.283Z,101226.42
2018-07-23T17:31:01.266Z,101228.09
2018-07-23T17:35:55.189Z,101223.20
2018-07-23T17:43:15.585Z,101225.66
2018-07-23T17:48:08.098Z,101225.83
2018-07-23T17:56:34.406Z,101228.18
2018-07-23T18:01:21.441Z,101225.66
2018-07-23T18:06:16.614Z,101226.45
2018-07-23T18:11:11.156Z,101222.17
2018-07-23T18:16:06.234Z,101224.88
2018-07-23T18:21:00.902Z,101223.99
2018-07-23T18:25:55.753Z,101218.29
2018-07-23T18:30:50.420Z,101224.61
2018-07-23T18:35:43.291Z,101226.28
2018-07-23T18:40:38.688Z,101230.02
2018-07-23T18:45:31.692Z,101231.05
2018-07-23T18:50:24.913Z,101226.11
2018-07-23T18:55:18.444Z,101223.10
2018-07-23T19:00:12.657Z,101220.48
2018-07-23T19:05:05.116Z,101219.87
2018-07-23T19:10:00.068Z,101222.95
2018-07-23T19:14:54.434Z,101226.23
2018-07-23T19:19:48.221Z,101225.86
2018-07-23T19:24:43.113Z,101237.87
2018-07-23T19:29:33.708Z,101247.45
2018-07-23T19:34:29.834Z,101245.95
2018-07-23T19:39:24.324Z,101249.51
2018-07-23T19:44:17.974Z,101254.73
2018-07-23T19:49:09.689Z,101255.11
2018-07-23T19:54:03.125Z,101262.33
2018-07-23T19:58:55.839Z,101255.75
2018-07-23T20:03:51.013Z,101255.64
2018-07-23T20:08:47.009Z,101255.81
2018-07-23T20:13:41.836Z,101255.08
2018-07-23T20:18:36.088Z,101257.84
2018-07-23T20:23:30.972Z,101260.59
2018-07-23T20:28:25.051Z,101263.44
2018-07-23T20:33:19.840Z,101260.03
2018-07-23T20:38:15.338Z,101259.91
2018-07-23T20:43:09.724Z,101256.50
2018-07-23T20:48:02.415Z,101261.91
2018-07-23T20:52:57.833Z,101257.44
2018-07-23T20:57:53.112Z,101261.56
2018-07-23T21:02:47.392Z,101263.34
2018-07-23T21:07:42.347Z,101254.31
2018-07-23T21:12:38.052Z,101254.27
2018-07-23T21:17:35.939Z,101260.23
2018-07-23T21:22:31.916Z,101261.67
2018-07-23T21:27:26.497Z,101260.84
2018-07-23T21:32:22.546Z,101267.52
2018-07-23T21:37:17.091Z,101266.50
2018-07-23T21:42:12.092Z,101273.56
2018-07-23T21:47:07.981Z,101278.23
2018-07-23T21:52:04.184Z,101279.59
2018-07-23T21:57:01.445Z,101282.29
2018-07-23T22:01:55.072Z,101277.41
2018-07-23T22:06:53.305Z,101277.02
2018-07-23T22:11:46.956Z,101284.36
2018-07-23T22:16:42.704Z,101286.33
2018-07-23T22:21:52.109Z,101290.14
2018-07-23T22:26:47.155Z,101290.70
2018-07-23T22:31:48.249Z,101280.24
2018-07-23T22:36:45.368Z,101284.39
2018-07-23T22:41:42.324Z,101291.53
2018-07-23T22:46:45.325Z,101284.31
2018-07-23T22:51:42.596Z,101277.06
2018-07-23T22:56:42.541Z,101279.77
2018-07-23T23:01:40.954Z,101278.40
2018-07-23T23:06:38.820Z,101272.03
2018-07-23T23:11:39.880Z,101278.13
2018-07-23T23:16:41.621Z,101275.19
2018-07-23T23:21:42.110Z,101271.47
2018-07-23T23:26:40.802Z,101272.73
2018-07-23T23:31:43.668Z,101269.92
2018-07-23T23:36:42.253Z,101260.12
2018-07-23T23:41:47.661Z,101262.83
2018-07-23T23:46:45.093Z,101263.85
2018-07-23T23:51:46.887Z,101261.38
2018-07-23T23:56:45.308Z,101260.41
